Time;durP1;ratioP1;P1;durP2;ratioP2;P2;SDS_P1;SDS_P2;PMS_P1;PMS_P2;Temp;Humidity;BMP_temperature;BMP_pressure;BME280_temperature;BME280_humidity;BME280_pressure;Samples;Min_cycle;Max_cycle;Signal;HPM_P1;HPM_P2
2022/09/08 00:00:45;;;;;;;3.20;2.17;;;20.20;98.00;;;;;;5012479;28;20466;-71
2022/09/08 00:03:14;;;;;;;3.37;1.90;;;20.10;98.00;;;;;;5012130;28;20471;-72
2022/09/08 00:05:47;;;;;;;5.73;2.77;;;20.10;98.00;;;;;;5012310;28;20498;-72
2022/09/08 00:08:17;;;;;;;3.60;2.37;;;20.20;98.00;;;;;;5012362;28;20477;-71
2022/09/08 00:10:44;;;;;;;6.50;2.60;;;20.20;98.00;;;;;;5012233;28;20480;-72
2022/09/08 00:13:11;;;;;;;3.43;2.37;;;20.20;98.00;;;;;;5012249;28;20822;-71
2022/09/08 00:15:39;;;;;;;4.37;2.70;;;20.30;98.00;;;;;;5012140;28;20855;-72
2022/09/08 00:18:07;;;;;;;4.27;2.37;;;20.40;98.00;;;;;;5012162;28;20474;-71
2022/09/08 00:20:35;;;;;;;6.00;2.70;;;20.40;98.00;;;;;;5011712;28;20867;-72
2022/09/08 00:23:02;;;;;;;3.80;2.50;;;20.40;98.00;;;;;;5012052;28;20876;-71
2022/09/08 00:25:30;;;;;;;3.20;2.30;;;20.50;98.00;;;;;;5011918;28;20483;-71
2022/09/08 00:27:58;;;;;;;4.03;2.67;;;20.50;98.00;;;;;;5011556;28;20456;-71
2022/09/08 00:30:26;;;;;;;3.60;2.60;;;20.40;98.00;;;;;;5011729;28;20466;-71
2022/09/08 00:32:53;;;;;;;4.30;2.70;;;20.30;98.00;;;;;;5011031;28;20467;-72
2022/09/08 00:35:21;;;;;;;3.23;2.30;;;20.30;98.00;;;;;;5011687;28;20455;-71
2022/09/08 00:37:49;;;;;;;3.27;2.30;;;20.40;98.00;;;;;;5011748;28;20993;-71
2022/09/08 00:40:17;;;;;;;3.30;2.20;;;20.40;98.00;;;;;;5011578;28;20460;-71
2022/09/08 00:42:45;;;;;;;2.70;2.07;;;20.40;98.00;;;;;;5011780;28;20472;-71
2022/09/08 00:45:17;;;;;;;3.80;2.50;;;20.40;98.00;;;;;;5011338;28;20501;-71
2022/09/08 00:47:54;;;;;;;2.97;2.13;;;20.30;98.00;;;;;;5011358;28;20521;-71
2022/09/08 00:50:24;;;;;;;2.97;2.30;;;20.20;98.00;;;;;;5011553;28;20832;-71
2022/09/08 00:52:59;;;;;;;3.40;2.00;;;20.20;98.00;;;;;;5011598;28;20868;-71
2022/09/08 00:55:27;;;;;;;2.33;1.90;;;20.20;98.00;;;;;;5011553;28;20484;-71
2022/09/08 00:57:55;;;;;;;4.83;1.60;;;20.20;98.00;;;;;;5011397;28;20468;-71
2022/09/08 01:00:23;;;;;;;2.97;2.20;;;20.10;98.00;;;;;;5011447;28;20461;-71
2022/09/08 01:02:50;;;;;;;3.00;2.03;;;20.10;98.00;;;;;;5011648;28;20468;-71
2022/09/08 01:05:21;;;;;;;3.53;1.90;;;20.10;98.00;;;;;;5011731;28;20465;-71
2022/09/08 01:13:40;;;;;;;2.43;1.70;;;20.10;98.00;;;;;;5011376;28;20482;-71
2022/09/08 01:16:08;;;;;;;3.97;2.20;;;20.00;98.00;;;;;;5011238;28;20463;-71
2022/09/08 01:18:36;;;;;;;2.73;2.10;;;20.00;98.00;;;;;;5011000;28;20871;-72
2022/09/08 01:21:09;;;;;;;4.33;1.90;;;20.00;98.00;;;;;;5011072;28;20483;-72
2022/09/08 01:24:26;;;;;;;2.93;2.07;;;20.10;98.00;;;;;;5011293;28;20844;-71
2022/09/08 01:27:22;;;;;;;3.70;2.00;;;20.10;98.00;;;;;;5011376;28;20491;-71
2022/09/08 01:29:56;;;;;;;2.40;1.93;;;20.00;98.00;;;;;;4997900;28;20478;-71
2022/09/08 01:32:24;;;;;;;3.37;1.83;;;20.00;98.00;;;;;;5011245;28;20455;-71
2022/09/08 01:34:52;;;;;;;2.30;1.80;;;20.10;98.00;;;;;;5010960;28;20464;-71
2022/09/08 01:37:19;;;;;;;2.93;1.77;;;20.00;98.00;;;;;;5011088;28;20526;-72
2022/09/08 01:39:46;;;;;;;2.53;1.70;;;20.00;98.00;;;;;;5010898;28;20482;-71
2022/09/08 01:42:13;;;;;;;2.40;1.70;;;20.00;98.00;;;;;;5011041;28;20471;-72
2022/09/08 01:44:43;;;;;;;2.10;1.70;;;20.10;98.00;;;;;;5011004;28;20447;-72
2022/09/08 01:47:10;;;;;;;1.60;1.60;;;20.10;98.00;;;;;;5010931;28;20491;-71
2022/09/08 01:49:37;;;;;;;2.07;1.57;;;20.00;98.00;;;;;;5011052;28;20451;-71
2022/09/08 01:52:05;;;;;;;1.90;1.50;;;20.10;98.00;;;;;;5009896;28;20462;-71
2022/09/08 01:54:32;;;;;;;2.57;1.77;;;20.10;98.00;;;;;;5010949;28;20525;-71
2022/09/08 01:56:59;;;;;;;1.90;1.60;;;20.20;98.00;;;;;;5010948;28;20847;-71
2022/09/08 01:59:26;;;;;;;2.33;1.60;;;20.20;98.00;;;;;;5010807;28;20471;-72
2022/09/08 02:01:55;;;;;;;1.77;1.50;;;20.10;98.00;;;;;;5014453;28;20452;-71
2022/09/08 02:04:22;;;;;;;2.23;1.60;;;19.90;98.00;;;;;;5014605;28;20462;-71
2022/09/08 02:06:49;;;;;;;1.60;1.60;;;19.80;98.00;;;;;;5014580;28;20487;-71
2022/09/08 02:09:16;;;;;;;1.67;1.50;;;19.90;98.00;;;;;;5014315;28;20456;-71
2022/09/08 02:11:51;;;;;;;1.97;1.50;;;19.80;98.00;;;;;;5014684;28;20463;-71
2022/09/08 02:14:18;;;;;;;2.30;1.53;;;19.70;98.00;;;;;;5014519;28;20465;-71
2022/09/08 02:16:45;;;;;;;10.50;1.67;;;19.70;98.00;;;;;;5014642;28;20448;-71
2022/09/08 02:19:14;;;;;;;2.47;1.53;;;19.70;98.00;;;;;;5013819;28;20841;-71
2022/09/08 02:21:41;;;;;;;1.50;1.30;;;19.70;98.00;;;;;;5014172;28;20470;-72
2022/09/08 02:24:08;;;;;;;2.03;1.60;;;19.80;98.00;;;;;;5013986;28;20463;-71
2022/09/08 02:26:37;;;;;;;1.67;1.40;;;19.70;98.00;;;;;;5014014;28;20478;-71
2022/09/08 02:29:08;;;;;;;2.13;1.40;;;19.80;98.00;;;;;;5013816;28;20981;-72
2022/09/08 02:31:36;;;;;;;1.73;1.50;;;19.70;98.00;;;;;;5014254;28;20474;-71
2022/09/08 02:34:04;;;;;;;1.77;1.57;;;19.70;98.00;;;;;;5013760;28;20471;-72
2022/09/08 02:36:33;;;;;;;1.93;1.53;;;19.80;98.00;;;;;;5013980;28;20474;-71
2022/09/08 02:39:00;;;;;;;2.67;1.67;;;19.70;98.00;;;;;;5013842;28;20471;-71
2022/09/08 02:41:29;;;;;;;2.00;1.53;;;19.60;98.00;;;;;;5013721;28;20466;-71
2022/09/08 02:43:56;;;;;;;2.70;1.93;;;19.50;98.00;;;;;;5013681;28;21036;-71
2022/09/08 02:46:24;;;;;;;2.33;1.60;;;19.50;98.00;;;;;;5013460;28;20482;-72
2022/09/08 02:48:52;;;;;;;1.97;1.57;;;19.60;98.00;;;;;;5013556;28;20516;-72
2022/09/08 02:51:20;;;;;;;2.10;1.70;;;19.60;98.00;;;;;;5013653;28;20451;-71
2022/09/08 02:53:49;;;;;;;2.13;1.60;;;19.60;98.00;;;;;;5013472;28;20470;-71
2022/09/08 02:56:16;;;;;;;2.00;1.50;;;19.50;98.00;;;;;;5013401;28;20448;-71
2022/09/08 02:58:43;;;;;;;1.93;1.63;;;19.70;98.00;;;;;;5013235;28;20463;-71
2022/09/08 03:01:10;;;;;;;2.33;1.80;;;19.70;98.00;;;;;;5012106;28;20474;-71
2022/09/08 03:03:37;;;;;;;1.93;1.70;;;19.60;98.00;;;;;;5013564;28;20462;-71
2022/09/08 03:06:05;;;;;;;2.00;1.60;;;19.50;98.00;;;;;;5013281;28;20484;-71
2022/09/08 03:08:33;;;;;;;2.50;1.70;;;19.50;98.00;;;;;;5013540;28;20538;-71
2022/09/08 03:11:03;;;;;;;2.33;1.70;;;19.50;98.00;;;;;;5013022;28;20460;-71
2022/09/08 03:13:30;;;;;;;2.90;1.77;;;19.50;98.00;;;;;;5012418;28;20513;-72
2022/09/08 03:15:57;;;;;;;2.30;1.70;;;19.30;98.00;;;;;;5013125;28;20474;-71
2022/09/08 03:18:25;;;;;;;2.27;1.70;;;19.50;98.00;;;;;;5013240;28;20455;-71
2022/09/08 03:21:00;;;;;;;2.13;1.60;;;19.40;98.00;;;;;;5012845;28;20829;-71
2022/09/08 03:23:27;;;;;;;2.63;2.17;;;19.40;98.00;;;;;;5012953;28;20978;-71
2022/09/08 03:25:54;;;;;;;1.67;1.57;;;19.30;98.00;;;;;;5012757;28;20455;-71
2022/09/08 03:28:25;;;;;;;2.10;1.50;;;19.30;98.00;;;;;;5012876;28;20460;-71
2022/09/08 03:30:53;;;;;;;1.73;1.50;;;19.30;98.00;;;;;;5012904;28;20475;-71
2022/09/08 03:33:20;;;;;;;2.00;1.57;;;19.40;98.00;;;;;;5013009;28;20542;-70
2022/09/08 03:35:48;;;;;;;2.00;1.50;;;19.40;98.00;;;;;;5012840;28;20664;-71
2022/09/08 03:38:15;;;;;;;1.70;1.50;;;19.40;98.00;;;;;;5012490;28;20467;-71
2022/09/08 03:40:42;;;;;;;1.40;1.37;;;19.40;98.00;;;;;;5012683;28;20490;-71
2022/09/08 03:43:10;;;;;;;1.40;1.40;;;19.30;98.00;;;;;;5012349;28;20966;-71
2022/09/08 03:45:43;;;;;;;1.63;1.57;;;19.30;98.00;;;;;;5012636;28;20510;-71
2022/09/08 03:48:10;;;;;;;1.70;1.30;;;19.30;98.00;;;;;;5012324;28;20497;-71
2022/09/08 03:50:37;;;;;;;2.23;1.50;;;19.30;98.00;;;;;;5012719;28;20561;-71
2022/09/08 03:53:05;;;;;;;2.10;1.53;;;19.50;98.00;;;;;;5012172;28;20459;-71
2022/09/08 03:55:32;;;;;;;1.43;1.37;;;19.50;98.00;;;;;;5012554;28;20471;-71
2022/09/08 03:57:59;;;;;;;1.47;1.37;;;19.50;98.00;;;;;;5012092;28;20511;-72
2022/09/08 04:00:27;;;;;;;2.30;1.50;;;19.40;98.00;;;;;;5012217;28;20760;-71
2022/09/08 04:02:56;;;;;;;1.70;1.30;;;19.40;98.00;;;;;;5012448;28;20470;-71
2022/09/08 04:05:23;;;;;;;2.07;1.50;;;19.30;98.00;;;;;;5012125;28;20459;-71
2022/09/08 04:07:51;;;;;;;2.20;1.47;;;19.20;98.00;;;;;;5012238;28;20540;-71
2022/09/08 04:10:20;;;;;;;2.60;1.60;;;19.10;98.00;;;;;;5012282;28;20466;-71
2022/09/08 04:12:47;;;;;;;1.87;1.50;;;19.10;98.00;;;;;;5012097;28;20495;-71
2022/09/08 04:15:15;;;;;;;1.40;1.30;;;19.20;98.00;;;;;;5012033;28;20455;-72
2022/09/08 04:17:42;;;;;;;2.10;1.47;;;19.10;98.00;;;;;;5012039;28;20466;-71
2022/09/08 04:20:13;;;;;;;1.80;1.60;;;19.10;98.00;;;;;;5011733;28;20513;-71
2022/09/08 04:22:40;;;;;;;2.13;1.60;;;19.10;98.00;;;;;;5011770;28;20478;-72
2022/09/08 04:25:08;;;;;;;1.50;1.40;;;19.00;98.00;;;;;;5011822;28;20479;-71
2022/09/08 04:27:35;;;;;;;1.77;1.60;;;19.10;98.00;;;;;;5011802;28;20503;-72
2022/09/08 04:30:03;;;;;;;1.80;1.30;;;19.10;98.00;;;;;;5011613;28;20460;-71
2022/09/08 04:32:30;;;;;;;1.40;1.30;;;19.00;98.00;;;;;;5011705;28;20456;-71
2022/09/08 04:34:57;;;;;;;1.50;1.30;;;18.90;98.00;;;;;;5011673;28;20479;-71
2022/09/08 04:37:25;;;;;;;1.50;1.23;;;18.90;98.00;;;;;;5011707;28;20460;-71
2022/09/08 04:39:54;;;;;;;1.40;1.30;;;19.00;98.00;;;;;;5011580;28;20463;-71
2022/09/08 04:42:23;;;;;;;1.30;1.30;;;19.00;98.00;;;;;;5011622;28;20451;-71
2022/09/08 04:44:52;;;;;;;1.63;1.23;;;19.00;98.00;;;;;;5011703;28;20565;-71
2022/09/08 04:47:19;;;;;;;1.50;1.17;;;19.10;98.00;;;;;;5011361;28;20490;-71
2022/09/08 04:49:46;;;;;;;1.33;1.23;;;19.10;98.00;;;;;;5011481;28;20463;-71
2022/09/08 04:52:13;;;;;;;1.70;1.50;;;19.10;98.00;;;;;;5011466;28;20471;-71
2022/09/08 04:54:42;;;;;;;1.40;1.33;;;19.10;98.00;;;;;;5011532;28;20463;-71
2022/09/08 04:57:10;;;;;;;1.30;1.20;;;19.10;98.00;;;;;;5011373;28;20506;-71
2022/09/08 04:59:37;;;;;;;1.40;1.30;;;19.10;98.00;;;;;;5011505;28;20459;-71
2022/09/08 05:02:06;;;;;;;1.30;1.30;;;19.00;98.00;;;;;;5011440;28;20464;-71
2022/09/08 05:04:33;;;;;;;1.80;1.50;;;19.10;98.00;;;;;;5011719;28;20467;-70
2022/09/08 05:07:00;;;;;;;1.67;1.20;;;18.90;98.00;;;;;;5011581;28;20487;-71
2022/09/08 05:09:28;;;;;;;1.40;1.20;;;18.80;98.00;;;;;;5011357;28;20468;-71
2022/09/08 05:11:56;;;;;;;2.17;1.50;;;18.70;98.00;;;;;;5011487;28;20491;-71
2022/09/08 05:14:23;;;;;;;1.40;1.20;;;18.70;98.00;;;;;;5011653;28;20474;-71
2022/09/08 05:16:50;;;;;;;1.23;1.23;;;18.60;98.00;;;;;;5011498;28;20525;-71
2022/09/08 05:19:18;;;;;;;1.60;1.33;;;18.60;98.00;;;;;;5011168;28;20570;-71
2022/09/08 05:21:45;;;;;;;1.60;1.40;;;18.50;98.00;;;;;;4994004;28;20486;-71
2022/09/08 05:24:21;;;;;;;1.70;1.30;;;18.60;98.00;;;;;;5011214;28;20470;-71
2022/09/08 05:26:48;;;;;;;1.70;1.40;;;18.60;98.00;;;;;;5011177;28;20914;-71
2022/09/08 05:29:22;;;;;;;1.60;1.30;;;18.50;98.00;;;;;;5011202;28;20460;-71
2022/09/08 05:31:50;;;;;;;1.40;1.20;;;18.50;98.00;;;;;;5011193;28;20976;-71
2022/09/08 05:34:17;;;;;;;1.30;1.20;;;18.50;98.00;;;;;;5011039;28;20835;-71
2022/09/08 05:36:44;;;;;;;1.30;1.20;;;18.50;98.00;;;;;;5014717;28;20460;-71
2022/09/08 05:39:11;;;;;;;2.33;1.40;;;18.50;98.00;;;;;;5014943;28;20462;-71
2022/09/08 05:41:38;;;;;;;1.30;1.20;;;18.40;98.00;;;;;;5015290;28;20455;-71
2022/09/08 05:44:08;;;;;;;1.20;1.10;;;18.40;98.00;;;;;;5014942;28;20463;-71
2022/09/08 05:46:36;;;;;;;2.00;1.27;;;18.40;98.00;;;;;;5014764;28;20550;-71
2022/09/08 05:49:04;;;;;;;1.40;1.23;;;18.30;98.00;;;;;;5013448;28;20459;-71
2022/09/08 05:51:32;;;;;;;1.97;1.43;;;18.20;98.00;;;;;;5015128;28;20467;-71
2022/09/08 05:54:00;;;;;;;1.27;1.23;;;18.30;98.00;;;;;;5014817;28;20472;-71
2022/09/08 05:56:28;;;;;;;3.10;1.40;;;18.20;98.00;;;;;;5014643;28;20467;-71
2022/09/08 05:58:57;;;;;;;1.70;1.30;;;18.20;98.00;;;;;;5014441;28;20973;-66
2022/09/08 06:01:25;;;;;;;2.17;1.30;;;18.20;98.00;;;;;;5013910;28;20497;-66
2022/09/08 06:03:54;;;;;;;1.93;1.20;;;18.20;98.00;;;;;;5015860;28;20459;-66
2022/09/08 06:06:21;;;;;;;2.50;1.30;;;18.30;98.00;;;;;;5015720;28;20455;-66
2022/09/08 06:08:49;;;;;;;1.40;1.20;;;18.30;98.00;;;;;;5015590;28;20487;-67
2022/09/08 06:11:16;;;;;;;2.83;1.47;;;18.20;98.00;;;;;;5014559;28;20490;-66
2022/09/08 06:13:43;;;;;;;1.30;1.20;;;18.20;98.00;;;;;;5014619;28;20461;-66
2022/09/08 06:16:12;;;;;;;1.77;1.50;;;18.30;98.00;;;;;;5015655;28;20945;-66
2022/09/08 06:18:40;;;;;;;2.17;1.40;;;18.30;98.00;;;;;;5015446;28;20550;-66
2022/09/08 06:21:12;;;;;;;1.80;1.20;;;18.20;98.00;;;;;;5015277;28;20459;-66
2022/09/08 06:23:39;;;;;;;2.00;1.40;;;18.30;98.00;;;;;;5014775;28;20579;-66
2022/09/08 06:26:39;;;;;;;1.40;1.20;;;18.20;98.00;;;;;;5014051;28;20474;-66
2022/09/08 06:29:12;;;;;;;2.03;1.50;;;18.20;98.00;;;;;;5013865;28;20863;-66
2022/09/08 06:31:42;;;;;;;1.40;1.10;;;18.20;98.00;;;;;;5014096;28;20486;-66
2022/09/08 06:34:17;;;;;;;1.53;1.40;;;18.20;98.00;;;;;;5013800;28;20463;-66
2022/09/08 06:36:50;;;;;;;1.60;1.40;;;18.20;98.00;;;;;;5013956;28;20554;-66
2022/09/08 06:39:23;;;;;;;1.70;1.40;;;18.20;98.00;;;;;;5013897;28;20459;-66
2022/09/08 06:41:55;;;;;;;1.33;1.27;;;18.40;98.00;;;;;;5013777;28;20452;-67
2022/09/08 06:44:26;;;;;;;1.30;1.20;;;18.40;98.00;;;;;;5014155;28;20467;-66
2022/09/08 06:46:55;;;;;;;1.40;1.20;;;18.40;98.00;;;;;;5013540;28;20470;-67
2022/09/08 06:49:26;;;;;;;1.53;1.20;;;18.30;98.00;;;;;;5013724;28;20451;-67
2022/09/08 06:52:00;;;;;;;1.27;1.20;;;18.30;98.00;;;;;;5013656;28;20456;-66
2022/09/08 06:54:43;;;;;;;2.07;1.30;;;18.30;98.00;;;;;;5013685;28;20455;-66
2022/09/08 06:57:27;;;;;;;1.73;1.17;;;18.40;98.00;;;;;;5013539;28;20482;-66
2022/09/08 07:00:08;;;;;;;1.30;1.27;;;18.30;98.00;;;;;;5013580;28;20542;-66
2022/09/08 07:02:56;;;;;;;1.40;1.33;;;18.40;98.00;;;;;;5208543;23;20435;-66
2022/09/08 07:05:45;;;;;;;1.20;1.10;;;18.30;98.00;;;;;;5053978;28;20895;-66
2022/09/08 07:08:27;;;;;;;1.53;1.20;;;18.30;98.00;;;;;;5053023;28;20539;-66
2022/09/08 07:10:58;;;;;;;1.40;1.10;;;18.30;98.00;;;;;;5052595;28;20515;-66
2022/09/08 07:13:31;;;;;;;1.30;1.20;;;18.20;98.00;;;;;;5052807;28;20453;-66
2022/09/08 07:16:04;;;;;;;1.73;1.20;;;18.30;98.00;;;;;;5052870;28;20503;-66
2022/09/08 07:18:38;;;;;;;1.30;1.20;;;18.30;98.00;;;;;;5052808;28;20461;-66
2022/09/08 07:21:21;;;;;;;1.40;1.10;;;18.30;98.00;;;;;;5052770;28;20464;-66
2022/09/08 07:23:51;;;;;;;1.60;1.23;;;18.30;98.00;;;;;;5035070;28;20504;-66
2022/09/08 07:26:25;;;;;;;1.50;1.30;;;18.50;98.00;;;;;;5049531;28;20503;-66
2022/09/08 07:28:58;;;;;;;1.30;1.20;;;18.50;98.00;;;;;;5066769;28;20493;-66
2022/09/08 07:31:26;;;;;;;1.47;1.33;;;18.50;98.00;;;;;;5062528;28;20872;-66
2022/09/08 07:33:58;;;;;;;1.50;1.30;;;18.60;98.00;;;;;;5059677;28;20450;-66
2022/09/08 07:36:33;;;;;;;4.60;1.70;;;18.60;98.00;;;;;;5059760;28;20470;-66
2022/09/08 07:39:10;;;;;;;1.40;1.20;;;18.60;98.00;;;;;;5042300;28;20654;-66
2022/09/08 07:41:42;;;;;;;1.40;1.30;;;18.60;98.00;;;;;;5069784;28;20486;-67
2022/09/08 07:44:14;;;;;;;1.37;1.20;;;18.70;98.00;;;;;;5068847;28;20985;-64
2022/09/08 07:47:05;;;;;;;1.20;1.10;;;18.80;98.00;;;;;;5059249;28;20461;-66
2022/09/08 07:49:47;;;;;;;1.40;1.13;;;18.80;98.00;;;;;;5051706;28;20493;-66
2022/09/08 07:52:27;;;;;;;3.73;1.40;;;18.80;98.00;;;;;;5051326;28;20466;-67
2022/09/08 07:55:07;;;;;;;1.30;1.10;;;18.90;98.00;;;;;;5050019;28;20454;-66
2022/09/08 07:57:46;;;;;;;1.50;1.20;;;18.90;98.00;;;;;;5049997;28;20807;-66
2022/09/08 08:00:18;;;;;;;1.47;1.23;;;18.90;98.00;;;;;;5061105;28;20468;-67
2022/09/08 08:03:09;;;;;;;1.40;1.30;;;19.00;98.00;;;;;;5042937;28;20968;-67
2022/09/08 08:05:44;;;;;;;2.13;1.30;;;19.00;98.00;;;;;;5050072;28;20500;-66
2022/09/08 08:08:17;;;;;;;1.47;1.37;;;19.00;98.00;;;;;;5063177;28;20488;-66
2022/09/08 08:10:53;;;;;;;3.73;1.67;;;19.00;98.00;;;;;;5052580;28;20469;-66
2022/09/08 08:13:30;;;;;;;1.73;1.50;;;19.00;98.00;;;;;;5049642;28;20460;-66
2022/09/08 08:16:05;;;;;;;1.83;1.33;;;19.10;98.00;;;;;;5058224;28;20890;-66
2022/09/08 08:18:45;;;;;;;1.30;1.17;;;19.10;98.00;;;;;;5060570;28;20453;-66
2022/09/08 08:21:15;;;;;;;1.67;1.30;;;19.00;98.00;;;;;;5049280;28;20466;-67
2022/09/08 08:23:55;;;;;;;1.40;1.30;;;19.10;98.00;;;;;;5042096;28;20454;-67
2022/09/08 08:26:33;;;;;;;1.43;1.30;;;19.10;98.00;;;;;;5042634;28;22433;-66
2022/09/08 08:29:34;;;;;;;2.57;1.60;;;19.10;98.00;;;;;;5064698;28;20548;-66
2022/09/08 08:32:09;;;;;;;1.97;1.20;;;19.10;98.00;;;;;;5028965;28;20519;-67
2022/09/08 08:34:43;;;;;;;1.70;1.30;;;19.10;98.00;;;;;;5067800;28;20558;-67
2022/09/08 08:37:29;;;;;;;1.30;1.27;;;19.30;98.00;;;;;;5069310;28;20456;-68
2022/09/08 08:39:57;;;;;;;1.40;1.20;;;19.50;98.00;;;;;;5060139;28;20464;-67
2022/09/08 08:42:41;;;;;;;1.33;1.23;;;19.70;98.00;;;;;;5058232;28;21076;-67
2022/09/08 08:45:22;;;;;;;1.60;1.27;;;19.70;98.00;;;;;;5043988;28;20971;-67
2022/09/08 08:48:14;;;;;;;1.40;1.17;;;19.80;98.00;;;;;;5056254;28;20492;-67
2022/09/08 08:51:14;;;;;;;1.33;1.17;;;19.90;98.00;;;;;;5037779;28;20520;-66
2022/09/08 08:54:00;;;;;;;1.30;1.20;;;19.90;98.00;;;;;;5062263;28;20452;-67
2022/09/08 08:56:34;;;;;;;3.47;1.40;;;19.80;98.00;;;;;;5064095;28;20510;-66
2022/09/08 08:59:22;;;;;;;1.30;1.27;;;19.80;98.00;;;;;;5063144;28;20457;-67
2022/09/08 09:02:09;;;;;;;1.60;1.30;;;19.80;98.00;;;;;;5049143;28;20464;-67
2022/09/08 09:04:58;;;;;;;1.30;1.20;;;19.70;98.00;;;;;;5044298;28;20535;-67
2022/09/08 09:08:15;;;;;;;1.67;1.50;;;19.70;98.00;;;;;;5059068;28;20473;-67
2022/09/08 09:11:01;;;;;;;1.87;1.47;;;19.90;98.00;;;;;;5055673;28;20841;-67
2022/09/08 09:14:07;;;;;;;1.47;1.30;;;20.00;98.00;;;;;;5069432;28;20565;-67
2022/09/08 09:16:49;;;;;;;1.70;1.40;;;19.90;98.00;;;;;;5072249;28;20468;-67
2022/09/08 09:20:06;;;;;;;3.33;1.30;;;19.90;98.00;;;;;;5062838;28;20462;-67
2022/09/08 09:22:43;;;;;;;1.63;1.57;;;20.00;98.00;;;;;;5032529;28;20462;-66
2022/09/08 09:25:21;;;;;;;1.40;1.30;;;20.10;98.00;;;;;;5061463;28;20860;-65
2022/09/08 09:28:00;;;;;;;2.90;1.30;;;20.10;98.00;;;;;;5068836;28;20460;-67
2022/09/08 09:30:34;;;;;;;1.47;1.30;;;20.10;98.00;;;;;;5055796;28;20467;-67
2022/09/08 09:33:29;;;;;;;1.40;1.40;;;20.10;98.00;;;;;;5073034;28;20534;-66
2022/09/08 09:36:10;;;;;;;1.40;1.27;;;20.10;98.00;;;;;;5057796;28;20508;-66
2022/09/08 09:39:00;;;;;;;1.40;1.20;;;20.10;98.00;;;;;;5052169;28;20478;-66
2022/09/08 09:41:43;;;;;;;1.37;1.37;;;20.30;98.00;;;;;;5044898;28;20990;-67
2022/09/08 09:44:39;;;;;;;1.50;1.40;;;20.60;98.00;;;;;;5062961;28;20458;-67
2022/09/08 09:47:39;;;;;;;1.60;1.37;;;20.90;98.00;;;;;;5066486;28;21185;-67
2022/09/08 09:50:30;;;;;;;1.40;1.30;;;21.60;98.00;;;;;;5014321;28;20539;-67
2022/09/08 09:53:10;;;;;;;1.40;1.27;;;22.20;98.00;;;;;;5048643;28;20464;-66
2022/09/08 09:56:16;;;;;;;1.70;1.40;;;22.80;98.00;;;;;;5057383;28;20476;-66
2022/09/08 09:59:24;;;;;;;2.07;1.40;;;22.60;98.00;;;;;;5062560;28;20947;-67
2022/09/08 10:02:08;;;;;;;1.63;1.50;;;22.50;98.00;;;;;;4960062;28;20471;-66
2022/09/08 10:05:04;;;;;;;1.40;1.30;;;22.10;98.00;;;;;;5061354;28;20460;-66
2022/09/08 10:08:23;;;;;;;1.53;1.47;;;21.60;98.00;;;;;;5045033;28;20469;-66
2022/09/08 10:11:12;;;;;;;1.60;1.30;;;21.20;98.00;;;;;;5053819;28;20454;-66
2022/09/08 10:14:18;;;;;;;1.50;1.27;;;21.10;98.00;;;;;;5057115;28;20522;-66
2022/09/08 10:17:14;;;;;;;1.60;1.50;;;21.00;98.00;;;;;;5073574;28;20861;-66
2022/09/08 10:20:27;;;;;;;1.77;1.33;;;20.70;98.00;;;;;;5073765;28;20464;-66
2022/09/08 10:23:14;;;;;;;1.50;1.20;;;20.80;98.00;;;;;;5073736;28;20737;-66
2022/09/08 10:26:25;;;;;;;1.60;1.40;;;20.90;98.00;;;;;;5073967;28;21051;-66
2022/09/08 10:29:36;;;;;;;1.67;1.20;;;21.00;98.00;;;;;;5073428;28;21002;-66
2022/09/08 10:32:34;;;;;;;1.93;1.40;;;21.10;98.00;;;;;;5073718;28;20503;-66
2022/09/08 10:35:31;;;;;;;1.80;1.50;;;21.30;98.00;;;;;;5073319;28;20559;-66
2022/09/08 10:38:20;;;;;;;1.60;1.30;;;21.50;98.00;;;;;;5073491;28;20518;-66
2022/09/08 10:41:10;;;;;;;1.67;1.40;;;21.90;98.00;;;;;;5073770;28;20533;-67
2022/09/08 10:44:14;;;;;;;1.37;1.20;;;22.10;98.00;;;;;;5073387;28;21040;-66
2022/09/08 10:47:09;;;;;;;1.20;1.20;;;22.50;98.00;;;;;;5073487;28;20461;-67
2022/09/08 10:50:02;;;;;;;1.70;1.47;;;23.00;98.00;;;;;;5036286;28;20481;-66
2022/09/08 10:52:33;;;;;;;1.30;1.30;;;23.20;98.00;;;;;;5073574;28;20457;-66
2022/09/08 10:55:28;;;;;;;1.47;1.30;;;23.20;98.00;;;;;;5073191;28;20452;-66
2022/09/08 10:58:16;;;;;;;1.60;1.30;;;23.20;98.00;;;;;;5073607;28;20496;-66
2022/09/08 11:00:55;;;;;;;2.23;1.37;;;22.80;98.00;;;;;;5073371;28;20456;-66
2022/09/08 11:03:58;;;;;;;1.40;1.30;;;22.50;98.00;;;;;;5073568;28;20930;-66
2022/09/08 11:06:41;;;;;;;1.50;1.40;;;22.20;98.00;;;;;;5055295;28;20496;-66
2022/09/08 11:09:26;;;;;;;1.80;1.60;;;22.00;98.00;;;;;;5072704;28;20541;-66
2022/09/08 11:12:31;;;;;;;1.93;1.40;;;21.70;98.00;;;;;;5073128;28;20956;-66
2022/09/08 11:15:28;;;;;;;1.33;1.20;;;21.60;98.00;;;;;;5056631;28;20469;-66
2022/09/08 11:18:03;;;;;;;1.80;1.40;;;21.80;98.00;;;;;;5053003;28;20948;-67
2022/09/08 11:20:37;;;;;;;1.40;1.30;;;22.10;98.00;;;;;;5052827;28;20453;-67
2022/09/08 11:23:24;;;;;;;1.53;1.50;;;22.20;98.00;;;;;;5052746;28;20553;-67
2022/09/08 11:26:10;;;;;;;1.57;1.30;;;22.10;98.00;;;;;;5052735;28;20461;-67
2022/09/08 11:28:54;;;;;;;1.47;1.20;;;21.70;98.00;;;;;;5052471;28;21063;-66
2022/09/08 11:31:34;;;;;;;1.20;1.10;;;21.60;98.00;;;;;;5052519;28;20538;-66
2022/09/08 11:34:16;;;;;;;1.40;1.30;;;21.90;98.00;;;;;;5051736;28;20458;-67
2022/09/08 11:37:06;;;;;;;1.57;1.37;;;22.00;98.00;;;;;;5052541;28;20462;-67
2022/09/08 11:39:52;;;;;;;1.20;1.10;;;22.20;98.00;;;;;;5036500;28;20469;-67
2022/09/08 11:42:45;;;;;;;1.40;1.27;;;22.10;98.00;;;;;;5052310;28;20473;-66
2022/09/08 11:45:24;;;;;;;1.70;1.57;;;22.00;98.00;;;;;;5052109;28;20773;-66
2022/09/08 11:48:39;;;;;;;1.60;1.43;;;22.00;98.00;;;;;;5052253;28;20462;-66
2022/09/08 11:51:33;;;;;;;1.40;1.30;;;22.00;98.00;;;;;;5040902;28;20454;-66
2022/09/08 11:54:21;;;;;;;1.50;1.50;;;22.10;98.00;;;;;;5032381;28;20470;-67
2022/09/08 11:57:29;;;;;;;2.53;1.50;;;22.10;98.00;;;;;;5032751;28;20463;-67
2022/09/08 12:00:39;;;;;;;1.57;1.27;;;22.10;98.00;;;;;;5032321;28;20475;-66
2022/09/08 12:03:57;;;;;;;1.53;1.33;;;22.00;98.00;;;;;;4935904;29;20997;-67
2022/09/08 12:06:56;;;;;;;1.50;1.40;;;21.90;98.00;;;;;;5032359;28;20521;-67
2022/09/08 12:09:48;;;;;;;1.50;1.40;;;22.50;98.00;;;;;;5032137;28;20490;-66
2022/09/08 12:12:33;;;;;;;1.30;1.30;;;23.40;98.00;;;;;;5014142;28;20517;-66
2022/09/08 12:15:15;;;;;;;2.37;1.60;;;23.70;98.00;;;;;;5047212;28;20489;-66
2022/09/08 12:18:00;;;;;;;1.40;1.30;;;24.30;98.00;;;;;;5051771;28;20453;-66
2022/09/08 12:20:43;;;;;;;1.70;1.50;;;24.70;98.00;;;;;;5051798;28;20517;-67
2022/09/08 12:23:36;;;;;;;1.40;1.27;;;25.00;95.90;;;;;;5051152;28;20450;-66
2022/09/08 12:26:19;;;;;;;1.30;1.30;;;25.00;95.70;;;;;;5051483;28;20469;-66
2022/09/08 12:29:02;;;;;;;1.50;1.40;;;25.20;95.20;;;;;;5049791;28;20482;-67
2022/09/08 12:31:45;;;;;;;1.50;1.20;;;25.00;94.90;;;;;;5050312;28;20880;-66
2022/09/08 12:34:41;;;;;;;2.13;1.20;;;24.70;95.80;;;;;;5051413;28;20878;-67
2022/09/08 12:37:14;;;;;;;1.50;1.40;;;25.20;96.00;;;;;;5051410;28;20466;-66
2022/09/08 12:40:20;;;;;;;1.50;1.40;;;25.60;94.90;;;;;;5051383;28;20469;-66
2022/09/08 12:43:10;;;;;;;1.50;1.40;;;26.20;92.80;;;;;;5051563;28;20457;-67
2022/09/08 12:45:49;;;;;;;1.70;1.40;;;26.70;90.90;;;;;;5051130;28;20454;-66
2022/09/08 12:48:29;;;;;;;2.13;1.40;;;26.70;91.20;;;;;;5051356;28;20464;-67
2022/09/08 12:51:05;;;;;;;1.40;1.20;;;26.30;91.30;;;;;;5051571;28;20489;-66
2022/09/08 12:54:14;;;;;;;2.60;1.60;;;25.70;91.50;;;;;;5051854;28;20464;-67
2022/09/08 12:56:55;;;;;;;1.70;1.50;;;25.40;93.20;;;;;;5050656;28;20461;-66
2022/09/08 12:59:35;;;;;;;1.60;1.40;;;25.30;94.40;;;;;;5031372;28;20465;-66
2022/09/08 13:02:23;;;;;;;2.57;1.40;;;25.80;92.40;;;;;;5031517;28;20455;-67
2022/09/08 13:05:12;;;;;;;1.30;1.20;;;26.10;90.30;;;;;;5031059;28;20455;-64
2022/09/08 13:07:49;;;;;;;1.37;1.30;;;26.70;90.50;;;;;;5030880;28;20492;-65
2022/09/08 13:10:24;;;;;;;1.50;1.40;;;27.30;89.10;;;;;;5031093;28;20481;-64
2022/09/08 13:13:23;;;;;;;1.30;1.30;;;27.10;87.80;;;;;;5031106;28;20975;-66
2022/09/08 13:15:54;;;;;;;2.57;1.87;;;26.90;87.60;;;;;;5025113;28;20474;-66
2022/09/08 13:18:31;;;;;;;1.60;1.53;;;27.30;87.20;;;;;;5031023;28;20964;-66
2022/09/08 13:21:17;;;;;;;1.40;1.30;;;27.40;87.30;;;;;;5030927;28;20462;-66
2022/09/08 13:23:51;;;;;;;1.40;1.20;;;27.40;86.00;;;;;;5030877;28;20454;-66
2022/09/08 13:26:46;;;;;;;1.80;1.40;;;27.30;88.20;;;;;;5031219;28;20480;-64
2022/09/08 13:29:43;;;;;;;1.40;1.40;;;27.70;86.90;;;;;;5028524;28;20860;-65
2022/09/08 13:32:26;;;;;;;1.70;1.40;;;28.30;86.80;;;;;;5015440;28;20525;-66
2022/09/08 13:35:06;;;;;;;1.50;1.40;;;28.90;83.60;;;;;;5030890;28;20870;-65
2022/09/08 13:38:04;;;;;;;1.30;1.30;;;28.90;81.70;;;;;;5031229;28;20525;-66
2022/09/08 13:40:41;;;;;;;1.53;1.47;;;28.10;81.30;;;;;;5030913;28;20473;-67
2022/09/08 13:43:37;;;;;;;2.50;1.53;;;27.00;83.60;;;;;;5030739;28;20461;-67
2022/09/08 13:46:17;;;;;;;1.70;1.53;;;26.40;85.50;;;;;;5030463;28;20844;-66